McClure: Past 24 Hour Conditions

 

Taloyoak Airport

09:00 AM MDT 30 October 2014
This table is a summary of hourly weather conditions for the past 24 hours.
Date / Time
(MDT)
Wind(knots) Conditions Visibility(km) Pressure(kPa) Air tempC) Relative humidity(%) Dew pointC) Wind Chill
30 October 2014
9:00 WSW 2 Sunny 24 102.1 -20 83 -22 -23
8:00 NW 8 Clear 24 102.1 -19 78 -22 -28
7:00 NW 9 Clear 24 102.1 -19 78 -22 -29
6:00 NW 10 Clear 24 102.1 -19 74 -22 -28
5:00 NW 8 Clear 24 102.1 -17 75 -21 -26
4:00 WNW 8 Light Snow 19 102.0 -17 77 -20 -25
3:00 WNW 10 Light Snow 19 102.0 -16 78 -19 -25
2:00 WNW 10 Light Snow 19 102.0 -15 79 -18 -24
1:00 SE 2 Light Snow 19 102.0 -16 78 -19 -19
0:00 WNW 7 Light Snow 19 101.9 -14 73 -18 -21
29 October 2014
23:00 W 5 Light Snow 19 101.9 -14 77 -17 -20
22:00 WNW 9 Partly Cloudy 19 101.9 -14 77 -17 -22
21:00 WNW 2 Light Snow 19 101.9 -13 72 -17 -16
20:00 W 8 Mostly Cloudy 24 101.9 -13 71 -17 -21
19:00 W 5 Mostly Cloudy 24 101.9 -14 70 -18 -19
18:00 WNW 5 Mostly Cloudy 24 102.0 -14 71 -18 -19
17:00 NNE 3 Mostly Cloudy 24 101.9 -14 81 -16 -17
16:00 NW 5 Partly Cloudy 24 101.9 -16 62 -21 -22
15:00 NNW 4 Mainly Sunny 24 101.9 -17 77 -20 -22
14:00 N 2 Mainly Sunny 24 101.9 -17 81 -19 -20
13:00 WNW 12 Mainly Sunny 24 101.8 -16 81 -19 -26
12:00 NW 17 gust 23 Drifting Snow 24 101.8 -17 77 -20 -28
11:00 WNW 18 Drifting Snow 24 101.8 -16 77 -19 -28
10:00 NW 12 Mainly Sunny 24 101.8 -17 77 -20 -27
9:00 NW 17 Drifting Snow 24 101.8 -17 81 -19 -28
 
Map of Arctic - Western Arctic marine weather areas Herschel Island Komakuk Beach Shingle Point Airport Aklavik Airport Cape Parry Airport Fort Good Hope Airport Inuvik Airport Keats Point Norman Wells Airport Paulatuk Airport Pelly Island Tuktoyaktuk Airport Kugluktuk Airport Gjoa Haven Airport Hat Island Kugaaruk Airport Shepherd Bay Airport CFS Alert Arctic Bay Cambridge Bay Airport Cape Peel West Eureka Airport Grise Fiord Airport Hall Beach Airport Igloolik Airport Isachsen Pond Inlet Airport Rea Point Repulse Bay Airport Resolute Airport Stefansson Island Taloyoak Airport Aulavik National Park Ulukhaktok Airport Sachs Harbour Airport Thomsen River Liverpool Bay Little Chicago Storm Hills Croker River Mould Bay Bathurst Inlet Fort Ross Gateshead Island Svartevaeg
Legend: buoyBuoy land stationLand Station » US Marine Weather